createdAt,value
2022-11-28T00:01:23.740Z,8.03
2022-11-28T00:03:50.285Z,8.05
2022-11-28T00:06:17.743Z,8.06
2022-11-28T00:08:44.583Z,8.06
2022-11-28T00:11:13.826Z,8.08
2022-11-28T00:13:40.542Z,8.09
2022-11-28T00:16:14.716Z,8.11
2022-11-28T00:18:42.853Z,8.12
2022-11-28T00:21:15.879Z,8.13
2022-11-28T00:23:44.206Z,8.15
2022-11-28T00:26:15.803Z,8.18
2022-11-28T00:28:42.471Z,8.20
2022-11-28T00:31:30.728Z,8.22
2022-11-28T00:33:58.915Z,8.24
2022-11-28T00:36:28.264Z,8.22
2022-11-28T00:38:54.959Z,8.24
2022-11-28T00:41:25.158Z,8.25
2022-11-28T00:43:53.627Z,8.23
2022-11-28T00:46:21.719Z,8.20
2022-11-28T00:48:49.049Z,8.15
2022-11-28T00:51:24.454Z,8.19
2022-11-28T00:53:53.130Z,8.20
2022-11-28T00:56:25.267Z,8.19
2022-11-28T00:58:52.309Z,8.22
2022-11-28T01:01:20.548Z,8.24
2022-11-28T01:03:49.116Z,8.25
2022-11-28T01:06:30.236Z,8.29
2022-11-28T01:08:59.294Z,8.27
2022-11-28T01:11:26.333Z,8.29
2022-11-28T01:13:58.104Z,8.29
2022-11-28T01:16:25.164Z,8.32
2022-11-28T01:18:52.126Z,8.32
2022-11-28T01:21:18.855Z,8.28
2022-11-28T01:23:45.622Z,8.32
2022-11-28T01:26:19.097Z,8.21
2022-11-28T01:28:46.014Z,8.31
2022-11-28T01:31:18.571Z,8.38
2022-11-28T01:33:45.297Z,8.40
2022-11-28T01:36:13.227Z,8.41
2022-11-28T01:38:40.301Z,8.44
2022-11-28T01:41:07.538Z,8.50
2022-11-28T01:43:34.753Z,8.53
2022-11-28T01:46:02.808Z,8.52
2022-11-28T01:48:32.919Z,8.55
2022-11-28T01:51:01.986Z,8.59
2022-11-28T01:53:30.935Z,8.59
2022-11-28T01:56:06.414Z,8.59
2022-11-28T01:58:36.230Z,8.65
2022-11-28T02:01:04.088Z,8.64
2022-11-28T02:03:41.806Z,8.69
2022-11-28T02:06:08.580Z,8.70
2022-11-28T02:08:36.292Z,8.70
2022-11-28T02:11:26.142Z,8.72
2022-11-28T02:14:14.446Z,8.70
2022-11-28T02:16:47.944Z,8.71
2022-11-28T02:19:29.267Z,8.77
2022-11-28T02:22:17.923Z,8.78
2022-11-28T02:24:56.024Z,8.79
2022-11-28T02:27:59.775Z,8.82
2022-11-28T02:31:18.503Z,8.83
2022-11-28T02:33:55.266Z,8.85
2022-11-28T02:36:35.952Z,8.86
2022-11-28T02:39:30.108Z,8.87
2022-11-28T02:42:19.808Z,8.90
2022-11-28T02:45:12.026Z,8.92
2022-11-28T02:47:49.435Z,8.94
2022-11-28T02:50:28.725Z,8.95
2022-11-28T02:53:03.807Z,8.98
2022-11-28T02:55:31.130Z,8.97
2022-11-28T02:57:57.636Z,8.99
2022-11-28T03:00:34.324Z,9.00
2022-11-28T03:03:25.534Z,9.00
2022-11-28T03:06:06.050Z,9.02
2022-11-28T03:08:57.607Z,9.05
2022-11-28T03:12:03.115Z,9.09
2022-11-28T03:15:14.309Z,9.08
2022-11-28T03:18:12.018Z,9.08
2022-11-28T03:20:49.665Z,9.08
2022-11-28T03:23:39.245Z,9.09
2022-11-28T03:26:12.814Z,9.10
2022-11-28T03:28:55.399Z,9.10
2022-11-28T03:31:34.536Z,9.11
2022-11-28T03:34:03.368Z,9.13
2022-11-28T03:36:40.840Z,9.14
2022-11-28T03:39:14.462Z,9.15
2022-11-28T03:41:57.192Z,9.17
2022-11-28T03:44:28.899Z,9.16
2022-11-28T03:46:58.849Z,9.16
2022-11-28T03:49:31.152Z,9.17
2022-11-28T03:52:06.449Z,9.17
2022-11-28T03:54:52.927Z,9.20
2022-11-28T03:57:44.213Z,9.20
2022-11-28T04:00:13.053Z,9.20
2022-11-28T04:02:57.090Z,9.23
2022-11-28T04:05:44.396Z,9.25
2022-11-28T04:08:22.493Z,9.25
2022-11-28T04:11:04.010Z,9.24
2022-11-28T04:13:37.187Z,9.25
2022-11-28T04:16:25.490Z,9.25
2022-11-28T04:19:17.908Z,9.27
2022-11-28T04:21:56.933Z,9.25
2022-11-28T04:24:31.840Z,9.21
2022-11-28T04:27:07.113Z,9.21
2022-11-28T04:29:43.974Z,9.18
2022-11-28T04:32:12.717Z,9.18
2022-11-28T04:34:45.140Z,9.19
2022-11-28T04:37:14.863Z,9.18
2022-11-28T04:39:44.640Z,9.20
2022-11-28T04:42:18.217Z,9.22
2022-11-28T04:45:03.027Z,9.25
2022-11-28T04:47:29.820Z,9.24
2022-11-28T04:49:56.481Z,9.24
2022-11-28T04:52:22.824Z,9.20
2022-11-28T04:55:31.265Z,9.19
2022-11-28T04:58:09.357Z,9.14
2022-11-28T05:00:37.606Z,9.14
2022-11-28T05:03:05.618Z,9.15
2022-11-28T05:05:41.472Z,9.13
2022-11-28T05:08:07.788Z,9.14
2022-11-28T05:10:37.208Z,9.16
2022-11-28T05:13:03.857Z,9.15
2022-11-28T05:15:33.350Z,9.18
2022-11-28T05:17:59.778Z,9.18
2022-11-28T05:20:26.784Z,9.18
2022-11-28T05:22:53.193Z,9.17
2022-11-28T05:25:19.896Z,9.18
2022-11-28T05:27:46.393Z,9.20
2022-11-28T05:30:15.986Z,9.19
2022-11-28T05:32:42.492Z,9.21
2022-11-28T05:35:09.240Z,9.22
2022-11-28T05:37:35.811Z,9.22
2022-11-28T05:40:03.800Z,9.23
2022-11-28T05:42:34.341Z,9.24
2022-11-28T05:45:01.285Z,9.25
2022-11-28T05:47:30.903Z,9.27
2022-11-28T05:49:58.905Z,9.22
2022-11-28T05:52:25.482Z,9.21
2022-11-28T05:54:51.892Z,9.20
2022-11-28T05:57:18.215Z,9.17
2022-11-28T05:59:44.842Z,9.15
2022-11-28T06:02:11.499Z,9.14
2022-11-28T06:04:38.123Z,9.16
2022-11-28T06:07:07.091Z,9.17
2022-11-28T06:09:33.542Z,9.19
2022-11-28T06:11:59.932Z,9.22
2022-11-28T06:14:26.367Z,9.22
2022-11-28T06:16:52.932Z,9.24
2022-11-28T06:19:19.487Z,9.25
2022-11-28T06:21:47.098Z,9.23
2022-11-28T06:24:13.485Z,9.27
2022-11-28T06:26:39.797Z,9.29
2022-11-28T06:29:06.206Z,9.31
2022-11-28T06:31:35.527Z,9.31
2022-11-28T06:34:04.034Z,9.30
2022-11-28T06:36:30.943Z,9.30
2022-11-28T06:38:57.558Z,9.33
2022-11-28T06:41:24.129Z,9.33
2022-11-28T06:43:50.768Z,9.35
2022-11-28T06:46:22.658Z,9.31
2022-11-28T06:48:51.708Z,9.34
2022-11-28T06:51:19.279Z,9.41
2022-11-28T06:53:45.854Z,9.44
2022-11-28T06:56:16.069Z,9.44
2022-11-28T06:58:43.950Z,9.41
2022-11-28T07:01:10.386Z,9.45
2022-11-28T07:03:37.720Z,9.47
2022-11-28T07:06:04.923Z,9.47
2022-11-28T07:08:32.394Z,9.46
2022-11-28T07:10:58.873Z,9.44
2022-11-28T07:13:25.582Z,9.47
2022-11-28T07:15:52.026Z,9.44
2022-11-28T07:18:21.535Z,9.47
2022-11-28T07:20:48.030Z,9.46
2022-11-28T07:23:14.430Z,9.46
2022-11-28T07:25:40.802Z,9.46
2022-11-28T07:28:07.362Z,9.43
2022-11-28T07:30:34.406Z,9.43
2022-11-28T07:33:00.997Z,9.47
2022-11-28T07:35:27.386Z,9.46
2022-11-28T07:37:54.786Z,9.45
2022-11-28T07:40:22.824Z,9.45
2022-11-28T07:42:49.347Z,9.50
2022-11-28T07:45:15.865Z,9.52
2022-11-28T07:47:42.230Z,9.54
2022-11-28T07:50:09.049Z,9.55
2022-11-28T07:52:35.550Z,9.53
2022-11-28T07:55:01.955Z,9.57
2022-11-28T07:57:28.519Z,9.59
2022-11-28T07:59:54.882Z,9.59
2022-11-28T08:02:21.475Z,9.60
2022-11-28T08:04:52.754Z,9.61
2022-11-28T08:07:22.110Z,9.56
2022-11-28T08:09:48.525Z,9.57
2022-11-28T08:12:14.924Z,9.59
2022-11-28T08:14:49.641Z,9.59
2022-11-28T08:17:16.539Z,9.53
2022-11-28T08:19:42.877Z,9.56
2022-11-28T08:22:09.316Z,9.58
2022-11-28T08:24:35.902Z,9.59
2022-11-28T08:27:05.383Z,9.59
2022-11-28T08:29:32.459Z,9.58
2022-11-28T08:31:58.968Z,9.60
2022-11-28T08:34:25.310Z,9.65
2022-11-28T08:36:51.766Z,9.73
2022-11-28T08:39:25.998Z,9.85
2022-11-28T08:41:59.600Z,9.93
2022-11-28T08:44:46.009Z,10.00
2022-11-28T08:47:21.290Z,10.00
2022-11-28T08:49:47.824Z,9.96
2022-11-28T08:52:14.470Z,9.94
2022-11-28T08:54:41.384Z,9.89
2022-11-28T08:57:08.090Z,9.89
2022-11-28T08:59:34.473Z,9.89
2022-11-28T09:02:04.067Z,9.86
2022-11-28T09:04:30.606Z,9.80
2022-11-28T09:06:57.032Z,9.81
2022-11-28T09:09:23.658Z,9.79
2022-11-28T09:11:50.312Z,9.75
2022-11-28T09:14:19.466Z,9.76
2022-11-28T09:16:45.965Z,9.77
2022-11-28T09:19:12.623Z,9.75
2022-11-28T09:21:39.830Z,9.75
2022-11-28T09:24:11.639Z,9.75
2022-11-28T09:26:38.033Z,9.75
2022-11-28T09:29:04.610Z,9.75
2022-11-28T09:31:31.254Z,9.77
2022-11-28T09:33:57.782Z,9.78
2022-11-28T09:36:24.846Z,9.77
2022-11-28T09:38:51.670Z,9.82
2022-11-28T09:41:41.557Z,9.86
2022-11-28T09:44:44.559Z,9.84
2022-11-28T09:47:18.184Z,9.90
2022-11-28T09:49:54.701Z,9.90
2022-11-28T09:52:26.464Z,9.95
2022-11-28T09:55:18.178Z,9.99
2022-11-28T09:57:52.262Z,9.98
2022-11-28T10:00:21.861Z,10.00
2022-11-28T10:02:57.239Z,10.02
2022-11-28T10:05:42.182Z,10.02
2022-11-28T10:08:43.942Z,10.02
2022-11-28T10:11:35.066Z,10.00
2022-11-28T10:14:46.308Z,10.05
2022-11-28T10:17:47.184Z,10.05
2022-11-28T10:20:17.162Z,10.05
2022-11-28T10:22:51.849Z,10.08
2022-11-28T10:25:24.377Z,10.11
2022-11-28T10:27:51.124Z,10.12
2022-11-28T10:30:26.537Z,10.13
2022-11-28T10:33:00.670Z,10.15
2022-11-28T10:35:35.496Z,10.15
2022-11-28T10:38:02.578Z,10.15
2022-11-28T10:40:50.649Z,10.20
2022-11-28T10:43:29.020Z,10.20
2022-11-28T10:46:20.407Z,10.24
2022-11-28T10:49:01.820Z,10.27
2022-11-28T10:51:43.453Z,10.33
2022-11-28T10:54:43.473Z,10.32
2022-11-28T10:57:27.648Z,10.30
2022-11-28T11:00:14.021Z,10.36
2022-11-28T11:02:45.542Z,10.40
2022-11-28T11:05:18.488Z,10.44
2022-11-28T11:07:57.826Z,10.47
2022-11-28T11:10:37.208Z,10.50
2022-11-28T11:13:15.879Z,10.51
2022-11-28T11:15:42.518Z,10.57
2022-11-28T11:18:27.317Z,10.59
2022-11-28T11:21:06.711Z,10.59
2022-11-28T11:23:38.131Z,10.60
2022-11-28T11:26:05.744Z,10.56
2022-11-28T11:28:32.197Z,10.57
2022-11-28T11:31:01.517Z,10.59
2022-11-28T11:33:34.607Z,10.57
2022-11-28T11:36:03.919Z,10.51
2022-11-28T11:38:37.746Z,10.56
2022-11-28T11:41:28.905Z,10.57
2022-11-28T11:43:56.697Z,10.55
2022-11-28T11:46:23.508Z,10.55
2022-11-28T11:48:53.607Z,10.55
2022-11-28T11:51:32.757Z,10.58
2022-11-28T11:54:16.489Z,10.60
2022-11-28T11:56:45.987Z,10.59
2022-11-28T11:59:18.124Z,10.64
2022-11-28T12:01:45.661Z,10.66
2022-11-28T12:04:47.265Z,10.66
2022-11-28T12:07:27.723Z,10.65
2022-11-28T12:10:01.751Z,10.63
2022-11-28T12:12:38.036Z,10.63
2022-11-28T12:15:30.026Z,10.68
2022-11-28T12:18:09.448Z,10.70
2022-11-28T12:20:44.377Z,10.73
2022-11-28T12:23:27.052Z,10.74
2022-11-28T12:26:19.512Z,10.76
2022-11-28T12:29:06.705Z,10.77
2022-11-28T12:31:42.924Z,10.77
2022-11-28T12:34:26.545Z,10.79
2022-11-28T12:38:03.126Z,10.83
2022-11-28T12:40:51.692Z,10.86
2022-11-28T12:44:00.986Z,10.88
2022-11-28T12:46:33.530Z,10.93
2022-11-28T12:49:12.091Z,10.93
2022-11-28T12:51:56.714Z,10.99
2022-11-28T12:54:41.178Z,10.99
2022-11-28T12:57:40.010Z,10.94
2022-11-28T13:00:22.032Z,11.03
2022-11-28T13:03:09.990Z,11.04
2022-11-28T13:05:53.916Z,11.04
2022-11-28T13:08:27.293Z,11.04
2022-11-28T13:11:00.519Z,11.06
2022-11-28T13:13:31.779Z,11.08
2022-11-28T13:16:26.376Z,11.10
2022-11-28T13:19:23.449Z,11.12
2022-11-28T13:22:14.751Z,11.11
2022-11-28T13:25:03.305Z,11.13
2022-11-28T13:27:52.843Z,11.14
2022-11-28T13:30:25.839Z,11.14
2022-11-28T13:33:14.556Z,11.16
2022-11-28T13:35:43.945Z,11.17
2022-11-28T13:38:44.163Z,11.20
2022-11-28T13:41:28.456Z,11.23
2022-11-28T13:44:31.567Z,11.24
2022-11-28T13:47:13.540Z,11.22
2022-11-28T13:49:40.101Z,11.22
2022-11-28T13:52:18.799Z,11.26
2022-11-28T13:54:53.141Z,11.24
2022-11-28T13:57:22.809Z,11.23
2022-11-28T13:59:54.314Z,11.25
2022-11-28T14:02:55.451Z,11.26
2022-11-28T14:05:30.522Z,11.23
2022-11-28T14:07:57.933Z,11.23
2022-11-28T14:10:28.612Z,11.22
2022-11-28T14:13:26.597Z,11.27
2022-11-28T14:16:21.311Z,11.30
2022-11-28T14:19:01.274Z,11.30
2022-11-28T14:22:09.397Z,11.31
2022-11-28T14:24:38.546Z,11.31
2022-11-28T14:27:05.875Z,11.31
2022-11-28T14:29:43.103Z,11.32
2022-11-28T14:32:31.391Z,11.35
2022-11-28T14:34:58.336Z,11.38
2022-11-28T14:37:52.937Z,11.39
2022-11-28T14:40:58.746Z,11.34
2022-11-28T14:43:26.585Z,11.38
2022-11-28T14:46:13.098Z,11.36
2022-11-28T14:48:42.047Z,11.33
2022-11-28T14:51:09.114Z,11.30
2022-11-28T14:53:36.003Z,11.27
2022-11-28T14:56:25.717Z,11.28
2022-11-28T14:58:57.066Z,11.26
2022-11-28T15:01:55.466Z,11.25
2022-11-28T15:04:47.876Z,11.23
2022-11-28T15:07:42.274Z,11.19
2022-11-28T15:10:38.609Z,11.17
2022-11-28T15:13:38.828Z,11.15
2022-11-28T15:16:10.131Z,11.14
2022-11-28T15:18:39.285Z,11.11
2022-11-28T15:21:11.483Z,11.13
2022-11-28T15:23:40.467Z,11.13
2022-11-28T15:26:07.569Z,11.08
2022-11-28T15:28:35.611Z,11.07
2022-11-28T15:31:05.572Z,11.04
2022-11-28T15:33:32.942Z,11.04
2022-11-28T15:36:13.072Z,11.03
2022-11-28T15:38:42.893Z,10.99
2022-11-28T15:41:09.961Z,11.00
2022-11-28T15:43:38.298Z,11.03
2022-11-28T15:46:05.827Z,11.01
2022-11-28T15:48:39.400Z,11.03
2022-11-28T15:51:07.471Z,11.04
2022-11-28T15:53:40.093Z,11.04
2022-11-28T15:56:09.855Z,11.06
2022-11-28T15:58:37.835Z,11.05
2022-11-28T16:01:18.256Z,11.07
2022-11-28T16:03:56.486Z,11.11
2022-11-28T16:06:26.841Z,11.11
2022-11-28T16:08:56.792Z,11.13
2022-11-28T16:11:26.712Z,11.14
2022-11-28T16:13:56.307Z,11.15
2022-11-28T16:16:27.623Z,11.16
2022-11-28T16:18:59.168Z,11.19
2022-11-28T16:21:29.896Z,11.19
2022-11-28T16:23:57.568Z,11.21
2022-11-28T16:26:32.767Z,11.22
2022-11-28T16:29:17.297Z,11.25
2022-11-28T16:31:44.799Z,11.21
2022-11-28T16:34:15.079Z,11.23
2022-11-28T16:36:45.698Z,11.23
2022-11-28T16:39:12.197Z,11.22
2022-11-28T16:42:30.825Z,11.21
2022-11-28T16:45:05.948Z,11.16
2022-11-28T16:47:33.070Z,11.13
2022-11-28T16:50:23.092Z,11.14
2022-11-28T16:52:54.670Z,11.11
2022-11-28T16:55:27.234Z,11.11
2022-11-28T16:57:59.788Z,11.11
2022-11-28T17:00:27.202Z,11.08
2022-11-28T17:02:53.718Z,11.06
2022-11-28T17:05:20.450Z,11.03
2022-11-28T17:07:46.896Z,11.00
2022-11-28T17:10:13.924Z,10.97
2022-11-28T17:12:40.807Z,10.96
2022-11-28T17:15:11.305Z,10.96
2022-11-28T17:17:37.689Z,10.88
2022-11-28T17:20:04.458Z,10.94
2022-11-28T17:22:41.083Z,10.97
2022-11-28T17:25:17.469Z,10.98
2022-11-28T17:27:44.020Z,10.99
2022-11-28T17:30:14.862Z,11.02
2022-11-28T17:32:41.235Z,11.02
2022-11-28T17:35:18.728Z,11.02
2022-11-28T17:37:45.195Z,11.04
2022-11-28T17:40:30.282Z,11.04
2022-11-28T17:42:56.850Z,11.03
2022-11-28T17:45:24.523Z,11.03
2022-11-28T17:47:51.202Z,10.99
2022-11-28T17:50:17.702Z,10.99
2022-11-28T17:52:44.709Z,11.02
2022-11-28T17:55:11.502Z,11.05
2022-11-28T17:57:37.955Z,11.08
2022-11-28T18:00:06.673Z,11.06
2022-11-28T18:02:33.095Z,11.07
2022-11-28T18:04:59.722Z,11.06
2022-11-28T18:07:26.077Z,11.07
2022-11-28T18:09:52.466Z,10.95
2022-11-28T18:12:18.833Z,11.05
2022-11-28T18:14:45.229Z,11.03
2022-11-28T18:17:12.006Z,11.03
2022-11-28T18:19:38.873Z,11.03
2022-11-28T18:22:06.366Z,11.03
2022-11-28T18:24:33.446Z,11.00
2022-11-28T18:27:00.130Z,11.04
2022-11-28T18:29:26.593Z,11.05
2022-11-28T18:31:53.124Z,11.01
2022-11-28T18:34:19.574Z,10.98
2022-11-28T18:36:46.059Z,10.95
2022-11-28T18:39:16.023Z,10.92
2022-11-28T18:41:42.780Z,10.90
2022-11-28T18:44:11.191Z,10.89
2022-11-28T18:46:39.314Z,10.90
2022-11-28T18:49:05.812Z,10.91
2022-11-28T18:51:34.150Z,10.93
2022-11-28T18:54:03.697Z,10.93
2022-11-28T18:56:30.237Z,10.92
2022-11-28T18:58:57.446Z,10.92
2022-11-28T19:01:30.695Z,10.91
2022-11-28T19:04:16.801Z,10.90
2022-11-28T19:06:45.354Z,10.90
2022-11-28T19:09:14.592Z,10.84
2022-11-28T19:11:41.839Z,10.81
2022-11-28T19:14:09.949Z,10.82
2022-11-28T19:16:37.571Z,10.75
2022-11-28T19:19:06.025Z,10.73
2022-11-28T19:21:34.769Z,10.74
2022-11-28T19:24:01.767Z,10.73
2022-11-28T19:26:33.971Z,10.68
2022-11-28T19:29:01.435Z,10.68
2022-11-28T19:31:30.785Z,10.67
2022-11-28T19:34:01.626Z,10.63
2022-11-28T19:36:30.131Z,10.57
2022-11-28T19:38:56.576Z,10.59
2022-11-28T19:41:23.022Z,10.59
2022-11-28T19:43:50.360Z,10.58
2022-11-28T19:46:17.395Z,10.57
2022-11-28T19:48:47.119Z,10.59
2022-11-28T19:51:13.903Z,10.53
2022-11-28T19:53:42.344Z,10.55
2022-11-28T19:56:34.904Z,10.56
2022-11-28T19:59:01.332Z,10.55
2022-11-28T20:01:28.129Z,10.49
2022-11-28T20:03:54.631Z,10.49
2022-11-28T20:06:25.075Z,10.45
2022-11-28T20:08:54.017Z,10.44
2022-11-28T20:11:27.273Z,10.42
2022-11-28T20:13:58.366Z,10.41
2022-11-28T20:16:25.451Z,10.36
2022-11-28T20:18:51.981Z,10.35
2022-11-28T20:21:19.286Z,10.34
2022-11-28T20:23:48.499Z,10.34
2022-11-28T20:26:17.692Z,10.31
2022-11-28T20:28:44.981Z,10.28
2022-11-28T20:31:20.295Z,10.25
2022-11-28T20:33:48.318Z,10.22
2022-11-28T20:36:17.342Z,10.18
2022-11-28T20:38:44.136Z,10.15
2022-11-28T20:41:16.348Z,10.13
2022-11-28T20:43:42.862Z,10.17
2022-11-28T20:46:11.169Z,10.09
2022-11-28T20:48:38.342Z,10.19
2022-11-28T20:51:14.117Z,10.23
2022-11-28T20:53:41.425Z,10.23
2022-11-28T20:56:31.979Z,10.25
2022-11-28T20:59:00.750Z,10.23
2022-11-28T21:01:30.328Z,10.24
2022-11-28T21:03:57.322Z,10.20
2022-11-28T21:06:23.763Z,10.14
2022-11-28T21:08:50.324Z,10.12
2022-11-28T21:11:43.413Z,10.10
2022-11-28T21:14:06.382Z,10.08
2022-11-28T21:16:33.814Z,10.11
2022-11-28T21:19:07.498Z,10.11
2022-11-28T21:21:37.207Z,10.05
2022-11-28T21:24:10.419Z,10.11
2022-11-28T21:26:41.425Z,10.13
2022-11-28T21:29:11.618Z,10.13
2022-11-28T21:31:42.683Z,10.12
2022-11-28T21:34:16.788Z,10.13
2022-11-28T21:36:44.026Z,10.15
2022-11-28T21:39:16.187Z,10.13
2022-11-28T21:41:42.903Z,10.16
2022-11-28T21:44:12.364Z,10.13
2022-11-28T21:46:38.929Z,10.14
2022-11-28T21:49:05.675Z,10.15
2022-11-28T21:51:32.131Z,10.16
2022-11-28T21:53:58.606Z,10.12
2022-11-28T21:56:25.257Z,10.10
2022-11-28T21:58:51.823Z,10.08
2022-11-28T22:01:18.677Z,10.07
2022-11-28T22:03:45.252Z,10.11
2022-11-28T22:06:18.212Z,10.13
2022-11-28T22:08:45.141Z,10.15
2022-11-28T22:11:13.290Z,10.18
2022-11-28T22:13:47.474Z,10.20
2022-11-28T22:16:19.704Z,10.21
2022-11-28T22:18:47.105Z,10.21
2022-11-28T22:21:50.184Z,10.22
2022-11-28T22:24:02.603Z,10.24
2022-11-28T22:26:29.037Z,10.25
2022-11-28T22:28:55.525Z,10.28
2022-11-28T22:31:22.551Z,10.28
2022-11-28T22:33:50.559Z,10.28
2022-11-28T22:36:19.426Z,10.29
2022-11-28T22:38:47.273Z,10.30
2022-11-28T22:41:16.090Z,10.29
2022-11-28T22:43:42.565Z,10.32
2022-11-28T22:46:11.070Z,10.33
2022-11-28T22:48:38.816Z,10.36
2022-11-28T22:51:18.607Z,10.36
2022-11-28T22:53:46.355Z,10.34
2022-11-28T22:56:15.527Z,10.33
2022-11-28T22:58:44.318Z,10.34
2022-11-28T23:01:13.604Z,10.37
2022-11-28T23:03:40.028Z,10.34
2022-11-28T23:06:12.749Z,10.37
2022-11-28T23:08:39.359Z,10.37
2022-11-28T23:11:18.603Z,10.39
2022-11-28T23:13:47.846Z,10.37
2022-11-28T23:16:35.702Z,10.40
2022-11-28T23:19:05.810Z,10.40
2022-11-28T23:21:35.506Z,10.40
2022-11-28T23:24:02.108Z,10.40
2022-11-28T23:26:30.670Z,10.44
2022-11-28T23:28:59.808Z,10.47
2022-11-28T23:31:29.473Z,10.49
2022-11-28T23:33:57.490Z,10.46
2022-11-28T23:36:30.303Z,10.47
2022-11-28T23:39:05.392Z,10.44
2022-11-28T23:41:31.957Z,10.48
2022-11-28T23:44:00.558Z,10.49
2022-11-28T23:46:28.598Z,10.50
2022-11-28T23:48:55.796Z,10.48
2022-11-28T23:51:26.318Z,10.46
2022-11-28T23:53:53.842Z,10.43
2022-11-28T23:56:25.555Z,10.42
2022-11-28T23:58:52.803Z,10.43
